createdAt,value
2019-05-06T00:01:36.008Z,86
2019-05-06T00:06:36.238Z,86
2019-05-06T00:11:36.546Z,86
2019-05-06T00:16:35.774Z,87
2019-05-06T00:21:35.952Z,87
2019-05-06T00:26:36.199Z,88
2019-05-06T00:31:36.379Z,88
2019-05-06T00:36:36.773Z,89
2019-05-06T00:41:36.642Z,89
2019-05-06T00:46:36.028Z,89
2019-05-06T00:51:36.262Z,89
2019-05-06T00:56:36.425Z,89
2019-05-06T01:01:36.599Z,89
2019-05-06T01:06:35.854Z,89
2019-05-06T01:11:35.908Z,89
2019-05-06T01:16:36.151Z,88
2019-05-06T01:21:36.453Z,88
2019-05-06T01:26:36.604Z,88
2019-05-06T01:31:42.825Z,88
2019-05-06T01:36:36.665Z,88
2019-05-06T01:41:35.873Z,88
2019-05-06T01:46:36.022Z,88
2019-05-06T01:51:36.177Z,88
2019-05-06T01:56:36.507Z,88
2019-05-06T02:01:36.714Z,88
2019-05-06T02:06:36.113Z,89
2019-05-06T02:11:36.292Z,89
2019-05-06T02:16:36.606Z,89
2019-05-06T02:21:36.790Z,89
2019-05-06T02:26:36.213Z,89
2019-05-06T02:31:36.417Z,89
2019-05-06T02:36:35.853Z,90
2019-05-06T02:41:36.427Z,90
2019-05-06T02:46:36.720Z,89
2019-05-06T02:51:36.484Z,89
2019-05-06T02:56:35.852Z,90
2019-05-06T03:01:36.046Z,90
2019-05-06T03:06:36.259Z,90
2019-05-06T03:11:36.436Z,90
2019-05-06T03:16:36.813Z,90
2019-05-06T03:21:37.056Z,90
2019-05-06T03:26:36.538Z,90
2019-05-06T03:31:36.953Z,90
2019-05-06T03:36:40.713Z,90
2019-05-06T03:41:36.736Z,90
2019-05-06T03:46:35.998Z,90
2019-05-06T03:51:36.151Z,90
2019-05-06T03:56:36.415Z,90
2019-05-06T04:01:36.861Z,90
2019-05-06T04:06:36.287Z,91
2019-05-06T04:11:36.720Z,91
2019-05-06T04:16:36.846Z,91
2019-05-06T04:21:36.059Z,91
2019-05-06T04:26:36.380Z,91
2019-05-06T04:31:36.899Z,91
2019-05-06T04:36:36.224Z,91
2019-05-06T04:41:36.457Z,91
2019-05-06T04:46:36.587Z,92
2019-05-06T04:51:37.205Z,92
2019-05-06T04:56:36.413Z,92
2019-05-06T05:01:36.747Z,92
2019-05-06T05:06:37.106Z,92
2019-05-06T05:11:36.521Z,92
2019-05-06T05:16:36.866Z,93
2019-05-06T05:21:36.550Z,93
2019-05-06T05:26:36.847Z,93
2019-05-06T05:31:36.056Z,93
2019-05-06T05:36:36.684Z,94
2019-05-06T05:41:36.891Z,94
2019-05-06T05:46:36.102Z,95
2019-05-06T05:51:36.431Z,95
2019-05-06T05:56:37.100Z,95
2019-05-06T06:01:36.522Z,95
2019-05-06T06:06:36.771Z,95
2019-05-06T06:11:37.079Z,95
2019-05-06T06:16:36.916Z,95
2019-05-06T06:21:36.203Z,95
2019-05-06T06:26:36.218Z,95
2019-05-06T06:31:36.373Z,95
2019-05-06T06:36:37.218Z,93
2019-05-06T06:41:36.404Z,93
2019-05-06T06:46:36.662Z,91
2019-05-06T06:51:36.950Z,91
2019-05-06T06:56:36.270Z,88
2019-05-06T07:01:36.677Z,88
2019-05-06T07:06:37.058Z,85
2019-05-06T07:11:36.970Z,85
2019-05-06T07:16:36.247Z,83
2019-05-06T07:21:37.065Z,83
2019-05-06T07:26:36.615Z,82
2019-05-06T07:31:37.046Z,82
2019-05-06T07:36:36.490Z,81
2019-05-06T07:41:37.024Z,81
2019-05-06T07:46:36.264Z,80
2019-05-06T07:51:36.644Z,80
2019-05-06T07:56:36.921Z,77
2019-05-06T08:01:37.205Z,77
2019-05-06T08:06:36.451Z,74
2019-05-06T08:11:36.898Z,74
2019-05-06T08:16:37.059Z,73
2019-05-06T08:21:36.389Z,73
2019-05-06T08:26:36.633Z,72
2019-05-06T08:31:36.921Z,72
2019-05-06T08:36:37.325Z,71
2019-05-06T08:41:36.612Z,71
2019-05-06T08:46:36.749Z,75
2019-05-06T08:51:36.927Z,75
2019-05-06T08:56:36.563Z,79
2019-05-06T09:01:37.025Z,79
2019-05-06T09:06:36.489Z,85
2019-05-06T09:11:37.236Z,85
2019-05-06T09:16:36.651Z,84
2019-05-06T09:21:36.907Z,84
2019-05-06T09:26:37.181Z,81
2019-05-06T09:31:36.903Z,81
2019-05-06T09:36:43.721Z,80
2019-05-06T09:41:36.621Z,80
2019-05-06T09:46:36.716Z,76
2019-05-06T09:51:37.082Z,76
2019-05-06T09:56:37.311Z,74
2019-05-06T10:01:36.677Z,74
2019-05-06T10:06:37.091Z,77
2019-05-06T10:11:36.950Z,77
2019-05-06T10:16:37.002Z,81
2019-05-06T10:21:37.268Z,81
2019-05-06T10:26:36.763Z,90
2019-05-06T10:31:37.179Z,90
2019-05-06T10:36:36.765Z,89
2019-05-06T10:41:37.272Z,89
2019-05-06T10:46:37.209Z,89
2019-05-06T10:51:36.711Z,89
2019-05-06T10:56:49.791Z,89
2019-05-06T11:01:37.163Z,89
2019-05-06T11:06:36.599Z,87
2019-05-06T11:11:38.389Z,87
2019-05-06T11:16:37.225Z,82
2019-05-06T11:21:36.469Z,82
2019-05-06T11:26:36.857Z,81
2019-05-06T11:31:36.724Z,81
2019-05-06T11:36:37.647Z,76
2019-05-06T11:41:37.140Z,76
2019-05-06T11:46:37.060Z,74
2019-05-06T11:51:37.453Z,74
2019-05-06T11:56:47.955Z,72
2019-05-06T12:01:36.692Z,72
2019-05-06T12:06:36.984Z,74
2019-05-06T12:11:37.230Z,74
2019-05-06T12:16:36.874Z,77
2019-05-06T12:21:37.284Z,77
2019-05-06T12:26:36.593Z,74
2019-05-06T12:31:36.785Z,74
2019-05-06T12:36:37.231Z,75
2019-05-06T12:41:36.652Z,75
2019-05-06T12:46:36.959Z,70
2019-05-06T12:51:36.711Z,70
2019-05-06T12:56:37.384Z,69
2019-05-06T13:01:37.521Z,69
2019-05-06T13:06:36.851Z,68
2019-05-06T13:11:37.434Z,68
2019-05-06T13:16:37.519Z,66
2019-05-06T13:21:36.738Z,66
2019-05-06T13:26:37.407Z,66
2019-05-06T13:31:36.702Z,66
2019-05-06T13:36:37.131Z,68
2019-05-06T13:41:37.433Z,68
2019-05-06T13:46:36.656Z,65
2019-05-06T13:51:37.061Z,65
2019-05-06T13:56:37.268Z,64
2019-05-06T14:01:37.584Z,64
2019-05-06T14:06:36.915Z,60
2019-05-06T14:11:36.751Z,60
2019-05-06T14:16:36.979Z,63
2019-05-06T14:21:37.387Z,63
2019-05-06T14:26:36.660Z,63
2019-05-06T14:31:37.148Z,63
2019-05-06T14:36:36.931Z,62
2019-05-06T14:41:37.644Z,62
2019-05-06T14:46:37.033Z,64
2019-05-06T14:51:37.600Z,64
2019-05-06T14:56:36.793Z,62
2019-05-06T15:01:37.250Z,62
2019-05-06T15:06:37.657Z,60
2019-05-06T15:11:37.126Z,60
2019-05-06T15:16:37.003Z,60
2019-05-06T15:21:38.788Z,60
2019-05-06T15:26:37.429Z,60
2019-05-06T15:31:37.694Z,60
2019-05-06T15:36:36.898Z,60
2019-05-06T15:41:37.210Z,60
2019-05-06T15:46:37.480Z,62
2019-05-06T15:51:36.859Z,62
2019-05-06T15:56:37.109Z,64
2019-05-06T16:01:37.299Z,64
2019-05-06T16:06:37.626Z,63
2019-05-06T16:11:37.246Z,63
2019-05-06T16:16:37.154Z,62
2019-05-06T16:21:37.076Z,62
2019-05-06T16:26:37.278Z,63
2019-05-06T16:31:37.649Z,63
2019-05-06T16:36:36.914Z,64
2019-05-06T16:41:37.380Z,64
2019-05-06T16:46:37.680Z,65
2019-05-06T16:51:36.999Z,65
2019-05-06T16:56:37.223Z,67
2019-05-06T17:01:37.481Z,67
2019-05-06T17:06:37.991Z,67
2019-05-06T17:11:37.548Z,67
2019-05-06T17:16:37.021Z,69
2019-05-06T17:21:37.341Z,69
2019-05-06T17:26:37.597Z,68
2019-05-06T17:31:37.820Z,68
2019-05-06T17:36:37.273Z,68
2019-05-06T17:41:46.009Z,68
2019-05-06T17:46:37.717Z,67
2019-05-06T17:51:37.412Z,67
2019-05-06T17:56:37.680Z,67
2019-05-06T18:01:37.081Z,67
2019-05-06T18:06:37.419Z,67
2019-05-06T18:11:37.145Z,67
2019-05-06T18:16:37.659Z,67
2019-05-06T18:21:37.083Z,67
2019-05-06T18:26:37.285Z,68
2019-05-06T18:31:37.428Z,68
2019-05-06T18:36:37.243Z,69
2019-05-06T18:41:37.567Z,69
2019-05-06T18:46:37.807Z,69
2019-05-06T18:51:37.292Z,69
2019-05-06T18:56:37.732Z,70
2019-05-06T19:01:37.152Z,70
2019-05-06T19:06:37.550Z,70
2019-05-06T19:11:36.949Z,70
2019-05-06T19:16:48.873Z,71
2019-05-06T19:21:37.754Z,71
2019-05-06T19:26:37.668Z,71
2019-05-06T19:31:37.875Z,71
2019-05-06T19:36:37.354Z,72
2019-05-06T19:41:37.457Z,72
2019-05-06T19:46:37.570Z,72
2019-05-06T19:51:37.337Z,72
2019-05-06T19:56:37.576Z,73
2019-05-06T20:01:38.079Z,73
2019-05-06T20:06:37.708Z,73
2019-05-06T20:11:37.484Z,73
2019-05-06T20:16:37.500Z,74
2019-05-06T20:21:37.277Z,74
2019-05-06T20:26:37.508Z,75
2019-05-06T20:31:37.857Z,75
2019-05-06T20:36:37.453Z,76
2019-05-06T20:41:37.651Z,76
2019-05-06T20:46:37.910Z,76
2019-05-06T20:51:37.252Z,76
2019-05-06T20:56:37.509Z,77
2019-05-06T21:01:37.769Z,77
2019-05-06T21:06:37.603Z,77
2019-05-06T21:11:38.108Z,77
2019-05-06T21:16:37.344Z,82
2019-05-06T21:21:37.585Z,82
2019-05-06T21:26:38.010Z,83
2019-05-06T21:31:37.241Z,83
2019-05-06T21:36:37.883Z,85
2019-05-06T21:41:38.271Z,85
2019-05-06T21:46:37.977Z,87
2019-05-06T21:51:37.214Z,87
2019-05-06T21:56:37.428Z,87
2019-05-06T22:01:37.904Z,87
2019-05-06T22:06:37.313Z,86
2019-05-06T22:11:38.108Z,86
2019-05-06T22:16:38.102Z,86
2019-05-06T22:21:37.362Z,86
2019-05-06T22:26:37.678Z,86
2019-05-06T22:31:37.963Z,86
2019-05-06T22:36:37.889Z,86
2019-05-06T22:41:38.093Z,86
2019-05-06T22:46:37.452Z,86
2019-05-06T22:51:37.665Z,86
2019-05-06T22:56:37.789Z,87
2019-05-06T23:01:37.999Z,87
2019-05-06T23:06:37.344Z,87
2019-05-06T23:11:37.860Z,87
2019-05-06T23:16:38.133Z,88
2019-05-06T23:21:38.630Z,88
2019-05-06T23:26:37.832Z,88
2019-05-06T23:31:38.075Z,88
2019-05-06T23:36:37.396Z,88
2019-05-06T23:41:37.649Z,88
2019-05-06T23:46:37.864Z,89
2019-05-06T23:51:38.267Z,89
2019-05-06T23:56:37.551Z,89
